sensor_id;sensor_type;location;lat;lon;timestamp;temperature;humidity
76789;DHT22;65740;52.464;13.446;2023-03-01T00:01:11;18.30;36.50
76789;DHT22;65740;52.464;13.446;2023-03-01T00:03:37;18.30;36.50
76789;DHT22;65740;52.464;13.446;2023-03-01T00:06:03;18.30;36.10
76789;DHT22;65740;52.464;13.446;2023-03-01T00:08:29;18.30;36.20
76789;DHT22;65740;52.464;13.446;2023-03-01T00:13:29;18.30;36.20
76789;DHT22;65740;52.464;13.446;2023-03-01T00:15:54;18.30;36.20
76789;DHT22;65740;52.464;13.446;2023-03-01T00:18:20;18.30;36.10
76789;DHT22;65740;52.464;13.446;2023-03-01T00:20:53;18.30;36.30
76789;DHT22;65740;52.464;13.446;2023-03-01T00:23:19;18.20;36.00
76789;DHT22;65740;52.464;13.446;2023-03-01T00:25:45;18.30;36.10
76789;DHT22;65740;52.464;13.446;2023-03-01T00:28:11;18.20;36.00
76789;DHT22;65740;52.464;13.446;2023-03-01T00:30:36;18.20;36.00
76789;DHT22;65740;52.464;13.446;2023-03-01T00:33:02;18.20;36.00
76789;DHT22;65740;52.464;13.446;2023-03-01T00:35:28;18.20;36.00
76789;DHT22;65740;52.464;13.446;2023-03-01T00:37:57;18.20;36.00
76789;DHT22;65740;52.464;13.446;2023-03-01T00:40:31;18.20;36.00
76789;DHT22;65740;52.464;13.446;2023-03-01T00:42:57;18.20;36.00
76789;DHT22;65740;52.464;13.446;2023-03-01T00:45:23;18.20;36.00
76789;DHT22;65740;52.464;13.446;2023-03-01T00:47:49;18.20;36.00
76789;DHT22;65740;52.464;13.446;2023-03-01T00:50:16;18.20;36.00
76789;DHT22;65740;52.464;13.446;2023-03-01T00:52:41;18.20;36.00
76789;DHT22;65740;52.464;13.446;2023-03-01T00:55:07;18.20;36.00
76789;DHT22;65740;52.464;13.446;2023-03-01T00:57:33;18.20;36.00
76789;DHT22;65740;52.464;13.446;2023-03-01T00:59:59;18.10;35.90
76789;DHT22;65740;52.464;13.446;2023-03-01T01:02:25;18.10;35.90
76789;DHT22;65740;52.464;13.446;2023-03-01T01:04:51;18.10;35.90
76789;DHT22;65740;52.464;13.446;2023-03-01T01:07:17;18.10;35.90
76789;DHT22;65740;52.464;13.446;2023-03-01T01:09:45;18.10;35.90
76789;DHT22;65740;52.464;13.446;2023-03-01T01:12:11;18.10;35.90
76789;DHT22;65740;52.464;13.446;2023-03-01T01:14:37;18.10;35.90
76789;DHT22;65740;52.464;13.446;2023-03-01T01:17:02;18.10;35.90
76789;DHT22;65740;52.464;13.446;2023-03-01T01:19:28;18.10;35.90
76789;DHT22;65740;52.464;13.446;2023-03-01T01:21:53;18.10;35.90
76789;DHT22;65740;52.464;13.446;2023-03-01T01:24:19;18.10;35.90
76789;DHT22;65740;52.464;13.446;2023-03-01T01:26:45;18.10;35.70
76789;DHT22;65740;52.464;13.446;2023-03-01T01:29:11;18.10;35.90
76789;DHT22;65740;52.464;13.446;2023-03-01T01:31:38;18.10;35.90
76789;DHT22;65740;52.464;13.446;2023-03-01T01:34:07;18.10;35.90
76789;DHT22;65740;52.464;13.446;2023-03-01T01:36:33;18.10;35.90
76789;DHT22;65740;52.464;13.446;2023-03-01T01:38:59;18.00;35.90
76789;DHT22;65740;52.464;13.446;2023-03-01T01:41:26;18.00;35.90
76789;DHT22;65740;52.464;13.446;2023-03-01T01:44:12;18.00;35.90
76789;DHT22;65740;52.464;13.446;2023-03-01T01:51:44;18.00;35.60
76789;DHT22;65740;52.464;13.446;2023-03-01T01:54:21;18.00;35.80
76789;DHT22;65740;52.464;13.446;2023-03-01T01:56:55;18.00;35.90
76789;DHT22;65740;52.464;13.446;2023-03-01T01:59:23;17.90;35.60
76789;DHT22;65740;52.464;13.446;2023-03-01T02:01:51;17.90;35.70
76789;DHT22;65740;52.464;13.446;2023-03-01T02:04:17;18.00;35.40
76789;DHT22;65740;52.464;13.446;2023-03-01T02:07:14;17.90;35.10
76789;DHT22;65740;52.464;13.446;2023-03-01T02:09:35;17.90;35.20
76789;DHT22;65740;52.464;13.446;2023-03-01T02:12:02;18.00;35.40
76789;DHT22;65740;52.464;13.446;2023-03-01T02:14:29;17.90;35.20
76789;DHT22;65740;52.464;13.446;2023-03-01T02:16:55;18.00;35.00
76789;DHT22;65740;52.464;13.446;2023-03-01T02:19:37;17.90;35.00
76789;DHT22;65740;52.464;13.446;2023-03-01T02:22:22;17.90;34.90
76789;DHT22;65740;52.464;13.446;2023-03-01T02:24:57;17.90;35.00
76789;DHT22;65740;52.464;13.446;2023-03-01T02:27:28;17.90;34.90
76789;DHT22;65740;52.464;13.446;2023-03-01T02:29:56;17.90;35.00
76789;DHT22;65740;52.464;13.446;2023-03-01T02:32:21;17.90;35.00
76789;DHT22;65740;52.464;13.446;2023-03-01T02:34:52;17.90;34.90
76789;DHT22;65740;52.464;13.446;2023-03-01T02:37:19;17.90;34.90
76789;DHT22;65740;52.464;13.446;2023-03-01T02:39:54;17.90;34.60
76789;DHT22;65740;52.464;13.446;2023-03-01T02:42:26;17.90;34.80
76789;DHT22;65740;52.464;13.446;2023-03-01T02:44:53;17.90;34.40
76789;DHT22;65740;52.464;13.446;2023-03-01T02:47:19;17.90;34.70
76789;DHT22;65740;52.464;13.446;2023-03-01T02:49:45;17.80;34.60
76789;DHT22;65740;52.464;13.446;2023-03-01T02:52:17;17.80;34.70
76789;DHT22;65740;52.464;13.446;2023-03-01T02:54:48;17.80;34.50
76789;DHT22;65740;52.464;13.446;2023-03-01T02:57:17;17.80;34.50
76789;DHT22;65740;52.464;13.446;2023-03-01T02:59:43;17.80;34.50
76789;DHT22;65740;52.464;13.446;2023-03-01T03:02:21;17.90;34.40
76789;DHT22;65740;52.464;13.446;2023-03-01T03:05:11;17.80;34.60
76789;DHT22;65740;52.464;13.446;2023-03-01T03:07:40;17.80;34.60
76789;DHT22;65740;52.464;13.446;2023-03-01T03:10:10;17.80;34.60
76789;DHT22;65740;52.464;13.446;2023-03-01T03:12:37;17.80;34.70
76789;DHT22;65740;52.464;13.446;2023-03-01T03:15:04;17.80;34.50
76789;DHT22;65740;52.464;13.446;2023-03-01T03:17:35;17.80;34.30
76789;DHT22;65740;52.464;13.446;2023-03-01T03:20:01;17.80;34.30
76789;DHT22;65740;52.464;13.446;2023-03-01T03:22:28;17.80;34.40
76789;DHT22;65740;52.464;13.446;2023-03-01T03:24:54;17.70;35.00
76789;DHT22;65740;52.464;13.446;2023-03-01T03:27:19;17.80;34.60
76789;DHT22;65740;52.464;13.446;2023-03-01T03:29:45;17.80;34.50
76789;DHT22;65740;52.464;13.446;2023-03-01T03:32:10;17.70;34.20
76789;DHT22;65740;52.464;13.446;2023-03-01T03:34:36;17.70;34.20
76789;DHT22;65740;52.464;13.446;2023-03-01T03:37:01;17.70;34.30
76789;DHT22;65740;52.464;13.446;2023-03-01T03:39:27;17.70;33.90
76789;DHT22;65740;52.464;13.446;2023-03-01T03:41:54;17.70;34.00
76789;DHT22;65740;52.464;13.446;2023-03-01T03:44:21;17.70;34.10
76789;DHT22;65740;52.464;13.446;2023-03-01T03:46:46;17.70;33.90
76789;DHT22;65740;52.464;13.446;2023-03-01T03:49:12;17.70;33.80
76789;DHT22;65740;52.464;13.446;2023-03-01T03:51:38;17.70;34.10
76789;DHT22;65740;52.464;13.446;2023-03-01T03:54:03;17.70;33.80
76789;DHT22;65740;52.464;13.446;2023-03-01T03:56:29;17.70;34.00
76789;DHT22;65740;52.464;13.446;2023-03-01T03:58:54;17.70;33.80
76789;DHT22;65740;52.464;13.446;2023-03-01T04:01:20;17.70;33.80
76789;DHT22;65740;52.464;13.446;2023-03-01T04:03:46;17.70;33.90
76789;DHT22;65740;52.464;13.446;2023-03-01T04:06:15;17.70;33.80
76789;DHT22;65740;52.464;13.446;2023-03-01T04:08:41;17.70;33.90
76789;DHT22;65740;52.464;13.446;2023-03-01T04:11:07;17.70;33.80
76789;DHT22;65740;52.464;13.446;2023-03-01T04:13:53;17.70;33.50
76789;DHT22;65740;52.464;13.446;2023-03-01T04:16:18;17.70;33.90
76789;DHT22;65740;52.464;13.446;2023-03-01T04:18:44;17.70;33.70
76789;DHT22;65740;52.464;13.446;2023-03-01T04:21:10;17.70;33.50
76789;DHT22;65740;52.464;13.446;2023-03-01T04:23:37;17.60;33.70
76789;DHT22;65740;52.464;13.446;2023-03-01T04:26:03;17.60;33.70
76789;DHT22;65740;52.464;13.446;2023-03-01T04:28:38;17.60;33.70
76789;DHT22;65740;52.464;13.446;2023-03-01T04:31:14;17.60;33.60
76789;DHT22;65740;52.464;13.446;2023-03-01T04:33:53;17.60;33.50
76789;DHT22;65740;52.464;13.446;2023-03-01T04:36:25;17.60;33.40
76789;DHT22;65740;52.464;13.446;2023-03-01T04:38:51;17.60;33.60
76789;DHT22;65740;52.464;13.446;2023-03-01T04:41:18;17.60;33.70
76789;DHT22;65740;52.464;13.446;2023-03-01T04:43:44;17.60;34.10
76789;DHT22;65740;52.464;13.446;2023-03-01T04:46:15;17.60;33.40
76789;DHT22;65740;52.464;13.446;2023-03-01T04:48:42;17.50;33.40
76789;DHT22;65740;52.464;13.446;2023-03-01T04:51:08;17.60;33.70
76789;DHT22;65740;52.464;13.446;2023-03-01T04:53:35;17.50;33.50
76789;DHT22;65740;52.464;13.446;2023-03-01T04:56:03;17.50;33.60
76789;DHT22;65740;52.464;13.446;2023-03-01T04:58:29;17.50;33.40
76789;DHT22;65740;52.464;13.446;2023-03-01T05:00:55;17.60;33.30
76789;DHT22;65740;52.464;13.446;2023-03-01T05:03:21;17.60;33.50
76789;DHT22;65740;52.464;13.446;2023-03-01T05:05:49;17.50;33.40
76789;DHT22;65740;52.464;13.446;2023-03-01T05:08:15;17.50;33.30
76789;DHT22;65740;52.464;13.446;2023-03-01T05:10:49;17.60;33.20
76789;DHT22;65740;52.464;13.446;2023-03-01T05:13:15;17.60;33.40
76789;DHT22;65740;52.464;13.446;2023-03-01T05:15:47;17.50;33.40
76789;DHT22;65740;52.464;13.446;2023-03-01T05:18:14;17.50;33.10
76789;DHT22;65740;52.464;13.446;2023-03-01T05:20:40;17.50;33.10
76789;DHT22;65740;52.464;13.446;2023-03-01T05:23:06;17.50;33.00
76789;DHT22;65740;52.464;13.446;2023-03-01T05:25:34;17.50;33.20
76789;DHT22;65740;52.464;13.446;2023-03-01T05:28:06;17.50;33.10
76789;DHT22;65740;52.464;13.446;2023-03-01T05:30:33;17.50;33.20
76789;DHT22;65740;52.464;13.446;2023-03-01T05:32:59;17.40;33.10
76789;DHT22;65740;52.464;13.446;2023-03-01T05:35:25;17.50;33.10
76789;DHT22;65740;52.464;13.446;2023-03-01T05:37:51;17.50;32.80
76789;DHT22;65740;52.464;13.446;2023-03-01T05:40:19;17.40;32.90
76789;DHT22;65740;52.464;13.446;2023-03-01T05:42:47;17.40;32.90
76789;DHT22;65740;52.464;13.446;2023-03-01T05:45:14;17.50;32.90
76789;DHT22;65740;52.464;13.446;2023-03-01T05:47:41;17.40;32.90
76789;DHT22;65740;52.464;13.446;2023-03-01T05:52:36;17.40;33.00
76789;DHT22;65740;52.464;13.446;2023-03-01T05:55:01;17.40;32.80
76789;DHT22;65740;52.464;13.446;2023-03-01T05:57:28;17.40;32.90
76789;DHT22;65740;52.464;13.446;2023-03-01T05:59:54;17.40;32.80
76789;DHT22;65740;52.464;13.446;2023-03-01T06:02:20;17.40;32.70
76789;DHT22;65740;52.464;13.446;2023-03-01T06:04:45;17.40;32.90
76789;DHT22;65740;52.464;13.446;2023-03-01T06:07:11;17.40;32.70
76789;DHT22;65740;52.464;13.446;2023-03-01T06:09:36;17.40;32.80
76789;DHT22;65740;52.464;13.446;2023-03-01T06:12:02;17.40;32.80
76789;DHT22;65740;52.464;13.446;2023-03-01T06:14:27;17.30;32.70
76789;DHT22;65740;52.464;13.446;2023-03-01T06:16:53;17.40;33.00
76789;DHT22;65740;52.464;13.446;2023-03-01T06:19:19;17.30;32.60
76789;DHT22;65740;52.464;13.446;2023-03-01T06:21:44;17.40;32.50
76789;DHT22;65740;52.464;13.446;2023-03-01T06:24:10;17.40;32.60
76789;DHT22;65740;52.464;13.446;2023-03-01T06:26:35;17.30;32.60
76789;DHT22;65740;52.464;13.446;2023-03-01T06:29:01;17.30;32.50
76789;DHT22;65740;52.464;13.446;2023-03-01T06:31:26;17.30;32.60
76789;DHT22;65740;52.464;13.446;2023-03-01T06:33:52;17.30;32.50
76789;DHT22;65740;52.464;13.446;2023-03-01T06:36:17;17.30;32.50
76789;DHT22;65740;52.464;13.446;2023-03-01T06:38:44;17.30;32.50
76789;DHT22;65740;52.464;13.446;2023-03-01T06:41:09;17.30;32.40
76789;DHT22;65740;52.464;13.446;2023-03-01T06:43:35;17.30;32.20
76789;DHT22;65740;52.464;13.446;2023-03-01T06:46:04;17.30;32.50
76789;DHT22;65740;52.464;13.446;2023-03-01T06:48:30;17.30;32.20
76789;DHT22;65740;52.464;13.446;2023-03-01T06:50:58;17.30;32.40
76789;DHT22;65740;52.464;13.446;2023-03-01T06:53:24;17.30;33.20
76789;DHT22;65740;52.464;13.446;2023-03-01T06:55:59;17.30;32.20
76789;DHT22;65740;52.464;13.446;2023-03-01T06:58:27;17.30;32.20
76789;DHT22;65740;52.464;13.446;2023-03-01T07:00:53;17.30;32.50
76789;DHT22;65740;52.464;13.446;2023-03-01T07:03:19;17.30;32.40
76789;DHT22;65740;52.464;13.446;2023-03-01T07:05:44;17.30;32.30
76789;DHT22;65740;52.464;13.446;2023-03-01T07:08:10;17.30;32.30
76789;DHT22;65740;52.464;13.446;2023-03-01T07:10:36;17.30;32.40
76789;DHT22;65740;52.464;13.446;2023-03-01T07:13:01;17.30;32.20
76789;DHT22;65740;52.464;13.446;2023-03-01T07:15:27;17.30;32.20
76789;DHT22;65740;52.464;13.446;2023-03-01T07:17:53;17.30;32.30
76789;DHT22;65740;52.464;13.446;2023-03-01T07:20:19;17.30;32.40
76789;DHT22;65740;52.464;13.446;2023-03-01T07:22:50;17.30;32.10
76789;DHT22;65740;52.464;13.446;2023-03-01T07:25:15;17.30;32.10
76789;DHT22;65740;52.464;13.446;2023-03-01T07:27:41;17.30;32.50
76789;DHT22;65740;52.464;13.446;2023-03-01T07:30:07;17.30;32.40
76789;DHT22;65740;52.464;13.446;2023-03-01T07:32:33;17.30;32.30
76789;DHT22;65740;52.464;13.446;2023-03-01T07:34:58;17.30;32.30
76789;DHT22;65740;52.464;13.446;2023-03-01T07:37:24;17.30;32.20
76789;DHT22;65740;52.464;13.446;2023-03-01T07:39:50;17.30;32.40
76789;DHT22;65740;52.464;13.446;2023-03-01T07:42:15;17.30;32.40
76789;DHT22;65740;52.464;13.446;2023-03-01T07:44:41;17.30;32.30
76789;DHT22;65740;52.464;13.446;2023-03-01T07:47:06;17.30;32.20
76789;DHT22;65740;52.464;13.446;2023-03-01T07:49:32;17.30;32.80
76789;DHT22;65740;52.464;13.446;2023-03-01T07:51:58;17.30;32.60
76789;DHT22;65740;52.464;13.446;2023-03-01T07:54:24;17.30;32.50
76789;DHT22;65740;52.464;13.446;2023-03-01T07:56:49;17.20;32.50
76789;DHT22;65740;52.464;13.446;2023-03-01T07:59:15;17.20;33.20
76789;DHT22;65740;52.464;13.446;2023-03-01T08:01:41;17.20;32.60
76789;DHT22;65740;52.464;13.446;2023-03-01T08:04:07;17.20;33.10
76789;DHT22;65740;52.464;13.446;2023-03-01T08:06:34;17.20;33.10
76789;DHT22;65740;52.464;13.446;2023-03-01T08:09:00;17.10;32.90
76789;DHT22;65740;52.464;13.446;2023-03-01T08:11:26;17.20;32.90
76789;DHT22;65740;52.464;13.446;2023-03-01T08:13:54;17.10;32.80
76789;DHT22;65740;52.464;13.446;2023-03-01T08:16:19;17.20;32.90
76789;DHT22;65740;52.464;13.446;2023-03-01T08:18:45;17.20;32.90
76789;DHT22;65740;52.464;13.446;2023-03-01T08:21:13;17.20;33.10
76789;DHT22;65740;52.464;13.446;2023-03-01T08:23:39;17.20;33.20
76789;DHT22;65740;52.464;13.446;2023-03-01T08:28:34;17.20;33.40
